Terminal Aerodrome Forecast
Issued by NWS

Home | Current Version | Previous Version | Text Only | Print | Product List | Glossary On
Versions: 1 2 3 4 5 6 7 8 9 10 11 12 13 14 15
000
FTUS44 KBMX 030500
TAFEET
TAF
KEET 030534Z 0306/0406 VRB03KT 2SM -DZ BR OVC003
     FM031700 16004KT 5SM -SHRA BR OVC008
     FM040200 VRB03KT 6SM BR OVC003=

USA.gov is the U.S. government's official web portal to all federal, state and local government web resources and services.